Upstream stations:
Downstream station:
SHEF ID: SASO2 Little River near Sasakwa, OK
STATION TYPE:
Regulating: Stage = 26.00, Flow = 14115
STAGE RIV-FLOW BAT-LOAD
ft cfs volt
Ccp-Rev Ccp-Rev Ccp-Rev
(US/Central)
03/24 00:00 4.11 210 12.25
03/24 01:00 4.07 202 12.25
03/24 02:00 4.04 196 12.25
03/24 03:00 4.02 192 12.25
03/24 04:00 3.97 183 12.25
03/24 05:00 3.95 179 12.17
03/24 06:00 3.90 169 12.17
03/24 07:00 3.88 166 12.17
03/24 08:00 3.84 158 12.17
03/24 09:00 3.80 151 12.17
03/24 10:00 3.81 153 12.25
03/24 11:00 3.76 144 12.33
03/24 12:00 3.74 140 12.73
03/24 13:00 3.76 144 13.05
03/24 14:00 3.71 135 13.68
03/24 15:00 3.71 135 13.76
03/24 16:00 3.70 133 13.68
03/24 17:00 3.66 126 13.68
03/24 18:00 3.64 122 13.53
03/24 19:00 3.63 121 13.29
03/24 20:00 3.63 121 12.81
03/24 21:00 3.59 114 12.49
03/24 22:00 3.59 114 12.41
03/24 23:00 3.58 112 12.33